createdAt,value
2017-10-20T00:00:15.022Z,14.93
2017-10-20T00:01:14.674Z,14.9
2017-10-20T00:02:14.632Z,14.94
2017-10-20T00:03:14.619Z,15
2017-10-20T00:04:14.916Z,14.93
2017-10-20T00:05:14.893Z,14.94
2017-10-20T00:06:14.878Z,14.97
2017-10-20T00:07:14.853Z,14.97
2017-10-20T00:08:14.830Z,15.01
2017-10-20T00:09:14.812Z,15
2017-10-20T00:10:14.806Z,14.95
2017-10-20T00:11:14.770Z,15.01
2017-10-20T00:12:14.761Z,14.94
2017-10-20T00:13:14.727Z,14.97
2017-10-20T00:14:14.697Z,14.91
2017-10-20T00:15:14.681Z,14.94
2017-10-20T00:16:14.658Z,14.97
2017-10-20T00:17:14.638Z,14.95
2017-10-20T00:18:14.620Z,14.91
2017-10-20T00:19:14.597Z,14.97
2017-10-20T00:20:14.279Z,14.83
2017-10-20T00:21:14.584Z,14.95
2017-10-20T00:22:14.204Z,14.93
2017-10-20T00:23:14.506Z,14.91
2017-10-20T00:24:14.171Z,14.91
2017-10-20T00:25:14.473Z,14.86
2017-10-20T00:26:14.439Z,14.87
2017-10-20T00:27:14.417Z,14.91
2017-10-20T00:28:14.395Z,14.86
2017-10-20T00:29:14.372Z,14.83
2017-10-20T00:30:14.355Z,14.86
2017-10-20T00:31:14.015Z,14.86
2017-10-20T00:32:14.308Z,14.93
2017-10-20T00:33:13.986Z,14.86
2017-10-20T00:34:14.273Z,14.83
2017-10-20T00:35:14.247Z,14.93
2017-10-20T00:36:14.223Z,14.91
2017-10-20T00:37:14.204Z,14.9
2017-10-20T00:38:14.196Z,14.91
2017-10-20T00:39:14.171Z,14.83
2017-10-20T00:40:14.144Z,14.93
2017-10-20T00:41:13.795Z,14.85
2017-10-20T00:42:14.098Z,14.82
2017-10-20T00:43:14.068Z,14.79
2017-10-20T00:44:14.057Z,14.8
2017-10-20T00:45:14.038Z,14.71
2017-10-20T00:46:14.029Z,14.86
2017-10-20T00:47:13.992Z,14.72
2017-10-20T00:48:13.967Z,14.74
2017-10-20T00:49:13.952Z,14.8
2017-10-20T00:50:13.919Z,14.91
2017-10-20T00:51:13.904Z,14.71
2017-10-20T00:52:13.867Z,14.82
2017-10-20T00:53:13.848Z,14.85
2017-10-20T00:54:13.835Z,14.82
2017-10-20T00:55:13.845Z,14.85
2017-10-20T00:56:13.779Z,14.87
2017-10-20T00:57:13.765Z,14.94
2017-10-20T00:58:13.757Z,14.97
2017-10-20T00:59:13.721Z,14.95
2017-10-20T01:00:13.698Z,14.97
2017-10-20T01:01:13.685Z,14.98
2017-10-20T01:02:13.652Z,14.98
2017-10-20T01:03:13.634Z,14.97
2017-10-20T01:04:13.609Z,14.97
2017-10-20T01:05:13.280Z,15
2017-10-20T01:06:13.574Z,14.97
2017-10-20T01:07:13.568Z,14.98
2017-10-20T01:08:13.528Z,15.03
2017-10-20T01:09:13.507Z,15.01
2017-10-20T01:10:13.486Z,15.04
2017-10-20T01:11:13.475Z,15.05
2017-10-20T01:12:13.438Z,15.01
2017-10-20T01:13:13.417Z,15.05
2017-10-20T01:14:13.074Z,14.95
2017-10-20T01:15:13.374Z,15.04
2017-10-20T01:16:13.357Z,14.97
2017-10-20T01:17:13.345Z,14.91
2017-10-20T01:18:13.304Z,15.01
2017-10-20T01:19:13.290Z,15.05
2017-10-20T01:20:13.298Z,14.98
2017-10-20T01:21:13.245Z,14.98
2017-10-20T01:22:13.234Z,14.98
2017-10-20T01:23:13.207Z,14.97
2017-10-20T01:24:13.179Z,14.98
2017-10-20T01:25:13.152Z,14.97
2017-10-20T01:26:13.132Z,15
2017-10-20T01:27:13.105Z,14.97
2017-10-20T01:28:13.096Z,14.97
2017-10-20T01:29:13.071Z,14.97
2017-10-20T01:30:13.050Z,14.95
2017-10-20T01:31:12.704Z,14.94
2017-10-20T01:32:13.012Z,14.93
2017-10-20T01:33:12.980Z,15.03
2017-10-20T01:34:12.963Z,14.94
2017-10-20T01:35:12.941Z,14.87
2017-10-20T01:36:12.908Z,14.91
2017-10-20T01:37:12.906Z,14.87
2017-10-20T01:38:12.874Z,14.85
2017-10-20T01:39:12.869Z,14.86
2017-10-20T01:40:12.850Z,14.85
2017-10-20T01:41:12.814Z,14.91
2017-10-20T01:42:12.781Z,14.9
2017-10-20T01:43:12.767Z,14.86
2017-10-20T01:44:12.752Z,14.83
2017-10-20T01:45:12.721Z,14.83
2017-10-20T01:46:12.697Z,14.86
2017-10-20T01:47:12.677Z,14.85
2017-10-20T01:48:12.335Z,14.85
2017-10-20T01:49:12.315Z,14.79
2017-10-20T01:50:12.636Z,14.79
2017-10-20T01:51:12.586Z,14.9
2017-10-20T01:52:12.572Z,14.83
2017-10-20T01:53:12.546Z,14.8
2017-10-20T01:54:12.200Z,14.8
2017-10-20T01:55:12.505Z,14.75
2017-10-20T01:56:12.160Z,14.72
2017-10-20T01:57:12.451Z,14.78
2017-10-20T01:58:12.116Z,14.69
2017-10-20T01:59:12.092Z,14.71
2017-10-20T02:00:12.421Z,14.69
2017-10-20T02:01:12.366Z,14.87
2017-10-20T02:02:12.349Z,14.83
2017-10-20T02:03:12.327Z,14.71
2017-10-20T02:04:12.315Z,14.85
2017-10-20T02:05:12.298Z,14.75
2017-10-20T02:06:13.194Z,14.82
2017-10-20T02:07:12.245Z,14.87
2017-10-20T02:08:12.505Z,14.75
2017-10-20T02:09:11.881Z,14.85
2017-10-20T02:10:12.177Z,14.82
2017-10-20T02:11:11.834Z,14.83
2017-10-20T02:12:12.128Z,14.8
2017-10-20T02:13:12.110Z,14.82
2017-10-20T02:14:12.086Z,14.82
2017-10-20T02:15:12.071Z,14.72
2017-10-20T02:16:12.040Z,14.83
2017-10-20T02:17:11.709Z,14.67
2017-10-20T02:18:12.000Z,14.82
2017-10-20T02:19:11.978Z,14.83
2017-10-20T02:20:11.956Z,14.78
2017-10-20T02:21:11.934Z,14.86
2017-10-20T02:22:11.917Z,14.82
2017-10-20T02:23:11.896Z,14.69
2017-10-20T02:24:11.869Z,14.83
2017-10-20T02:25:11.853Z,14.85
2017-10-20T02:26:11.821Z,14.82
2017-10-20T02:27:11.806Z,14.8
2017-10-20T02:28:11.779Z,14.86
2017-10-20T02:29:11.769Z,14.82
2017-10-20T02:30:11.744Z,14.86
2017-10-20T02:31:11.729Z,14.83
2017-10-20T02:32:11.691Z,14.87
2017-10-20T02:33:11.672Z,14.83
2017-10-20T02:34:11.660Z,14.86
2017-10-20T02:35:11.634Z,14.85
2017-10-20T02:36:11.613Z,14.83
2017-10-20T02:37:11.583Z,14.87
2017-10-20T02:38:11.564Z,14.91
2017-10-20T02:39:11.538Z,14.87
2017-10-20T02:40:11.517Z,14.83
2017-10-20T02:41:11.516Z,14.87
2017-10-20T02:42:11.479Z,14.86
2017-10-20T02:43:11.150Z,14.93
2017-10-20T02:44:11.434Z,14.87
2017-10-20T02:45:11.411Z,14.87
2017-10-20T02:46:11.390Z,14.87
2017-10-20T02:47:11.366Z,14.83
2017-10-20T02:48:11.346Z,14.94
2017-10-20T02:49:11.324Z,14.85
2017-10-20T02:50:11.305Z,14.97
2017-10-20T02:51:11.279Z,14.94
2017-10-20T02:52:10.941Z,14.86
2017-10-20T02:53:11.244Z,14.86
2017-10-20T02:54:11.218Z,14.87
2017-10-20T02:55:11.194Z,14.83
2017-10-20T02:56:11.182Z,14.85
2017-10-20T02:57:11.153Z,14.83
2017-10-20T02:58:11.131Z,14.83
2017-10-20T02:59:11.109Z,14.83
2017-10-20T03:00:11.085Z,14.8
2017-10-20T03:01:11.070Z,14.78
2017-10-20T03:02:11.041Z,14.91
2017-10-20T03:03:11.024Z,14.91
2017-10-20T03:04:10.997Z,14.87
2017-10-20T03:05:10.985Z,14.85
2017-10-20T03:06:10.950Z,14.91
2017-10-20T03:07:10.931Z,14.83
2017-10-20T03:08:10.597Z,14.85
2017-10-20T03:09:10.889Z,14.9
2017-10-20T03:10:10.869Z,14.85
2017-10-20T03:11:10.848Z,14.85
2017-10-20T03:12:10.830Z,14.9
2017-10-20T03:13:10.809Z,14.82
2017-10-20T03:14:10.780Z,14.87
2017-10-20T03:15:10.760Z,14.85
2017-10-20T03:16:10.416Z,14.9
2017-10-20T03:17:10.708Z,14.86
2017-10-20T03:18:10.691Z,14.94
2017-10-20T03:19:10.671Z,14.94
2017-10-20T03:20:10.641Z,14.94
2017-10-20T03:21:10.617Z,14.94
2017-10-20T03:22:10.614Z,15
2017-10-20T03:23:10.586Z,14.9
2017-10-20T03:24:10.568Z,14.95
2017-10-20T03:25:10.542Z,14.94
2017-10-20T03:26:10.509Z,14.91
2017-10-20T03:27:10.174Z,14.95
2017-10-20T03:28:10.503Z,14.87
2017-10-20T03:29:10.131Z,14.85
2017-10-20T03:30:10.440Z,14.79
2017-10-20T03:31:10.410Z,14.82
2017-10-20T03:32:10.388Z,14.78
2017-10-20T03:33:10.055Z,14.79
2017-10-20T03:34:10.341Z,14.8
2017-10-20T03:35:10.324Z,14.79
2017-10-20T03:36:10.297Z,14.86
2017-10-20T03:37:10.277Z,14.82
2017-10-20T03:38:10.261Z,14.74
2017-10-20T03:39:09.595Z,14.82
2017-10-20T03:40:10.460Z,14.85
2017-10-20T03:41:10.185Z,14.86
2017-10-20T03:42:10.166Z,14.78
2017-10-20T03:43:09.829Z,14.71
2017-10-20T03:44:09.801Z,14.74
2017-10-20T03:45:10.101Z,14.63
2017-10-20T03:46:10.084Z,14.63
2017-10-20T03:47:09.734Z,14.67
2017-10-20T03:48:10.031Z,14.6
2017-10-20T03:49:10.024Z,14.63
2017-10-20T03:50:10.002Z,14.57
2017-10-20T03:51:09.972Z,14.56
2017-10-20T03:52:09.625Z,14.71
2017-10-20T03:53:09.922Z,14.64
2017-10-20T03:54:09.898Z,14.57
2017-10-20T03:55:09.882Z,14.59
2017-10-20T03:56:09.860Z,14.56
2017-10-20T03:57:09.844Z,14.57
2017-10-20T03:58:09.808Z,14.59
2017-10-20T03:59:09.818Z,14.59
2017-10-20T04:00:09.772Z,14.56
2017-10-20T04:01:09.771Z,14.57
2017-10-20T04:02:09.736Z,14.6
2017-10-20T04:03:09.708Z,14.57
2017-10-20T04:04:09.683Z,14.54
2017-10-20T04:05:09.655Z,14.52
2017-10-20T04:06:09.640Z,14.52
2017-10-20T04:07:09.607Z,14.53
2017-10-20T04:08:09.593Z,14.54
2017-10-20T04:09:09.573Z,14.49
2017-10-20T04:10:09.544Z,14.45
2017-10-20T04:11:09.532Z,14.41
2017-10-20T04:12:09.509Z,14.42
2017-10-20T04:13:09.485Z,14.41
2017-10-20T04:14:09.461Z,14.45
2017-10-20T04:15:09.441Z,14.46
2017-10-20T04:16:09.422Z,14.44
2017-10-20T04:17:09.078Z,14.44
2017-10-20T04:18:09.373Z,14.38
2017-10-20T04:19:09.345Z,14.41
2017-10-20T04:20:09.324Z,14.41
2017-10-20T04:21:09.305Z,14.41
2017-10-20T04:22:09.286Z,14.41
2017-10-20T04:23:09.268Z,14.41
2017-10-20T04:24:09.240Z,14.44
2017-10-20T04:25:09.227Z,14.45
2017-10-20T04:26:09.194Z,14.44
2017-10-20T04:27:09.168Z,14.45
2017-10-20T04:28:08.830Z,14.41
2017-10-20T04:29:09.136Z,14.44
2017-10-20T04:30:09.105Z,14.46
2017-10-20T04:31:09.089Z,14.38
2017-10-20T04:32:09.067Z,14.45
2017-10-20T04:33:09.039Z,14.41
2017-10-20T04:34:09.024Z,14.44
2017-10-20T04:35:08.994Z,14.41
2017-10-20T04:36:08.971Z,14.41
2017-10-20T04:37:08.950Z,14.45
2017-10-20T04:38:08.934Z,14.44
2017-10-20T04:39:08.904Z,14.42
2017-10-20T04:40:08.883Z,14.41
2017-10-20T04:41:08.874Z,14.41
2017-10-20T04:42:08.843Z,14.49
2017-10-20T04:43:08.827Z,14.49
2017-10-20T04:44:08.796Z,14.54
2017-10-20T04:45:08.813Z,14.53
2017-10-20T04:46:08.906Z,14.52
2017-10-20T04:47:08.941Z,14.52
2017-10-20T04:48:08.389Z,14.56
2017-10-20T04:49:08.682Z,14.54
2017-10-20T04:50:08.670Z,14.59
2017-10-20T04:51:08.643Z,14.49
2017-10-20T04:52:08.632Z,14.52
2017-10-20T04:53:08.600Z,14.53
2017-10-20T04:54:08.569Z,14.71
2017-10-20T04:55:08.587Z,14.63
2017-10-20T04:56:07.896Z,14.61
2017-10-20T04:57:08.513Z,14.64
2017-10-20T04:58:08.501Z,14.61
2017-10-20T04:59:08.469Z,14.6
2017-10-20T05:00:08.445Z,14.59
2017-10-20T05:01:08.426Z,14.6
2017-10-20T05:02:08.403Z,14.64
2017-10-20T05:03:08.391Z,14.59
2017-10-20T05:04:08.365Z,14.69
2017-10-20T05:05:08.342Z,14.75
2017-10-20T05:06:08.309Z,14.83
2017-10-20T05:07:07.972Z,14.75
2017-10-20T05:08:08.273Z,14.8
2017-10-20T05:09:08.245Z,14.72
2017-10-20T05:10:08.225Z,14.78
2017-10-20T05:11:07.889Z,14.82
2017-10-20T05:12:08.175Z,14.75
2017-10-20T05:13:08.161Z,14.85
2017-10-20T05:14:08.142Z,14.8
2017-10-20T05:15:08.128Z,14.82
2017-10-20T05:16:07.778Z,14.79
2017-10-20T05:17:08.079Z,14.79
2017-10-20T05:18:08.079Z,14.8
2017-10-20T05:19:08.030Z,14.83
2017-10-20T05:20:08.006Z,14.83
2017-10-20T05:21:07.986Z,14.83
2017-10-20T05:22:07.974Z,14.83
2017-10-20T05:23:07.940Z,14.87
2017-10-20T05:24:08.280Z,14.98
2017-10-20T05:25:07.896Z,15
2017-10-20T05:26:07.879Z,15.04
2017-10-20T05:27:07.851Z,15
2017-10-20T05:28:07.504Z,15
2017-10-20T05:29:07.800Z,14.97
2017-10-20T05:30:07.788Z,15.05
2017-10-20T05:31:07.774Z,15.18
2017-10-20T05:32:07.745Z,15.11
2017-10-20T05:33:07.720Z,15.18
2017-10-20T05:34:07.705Z,15.2
2017-10-20T05:35:07.679Z,15.28
2017-10-20T05:36:07.658Z,15.23
2017-10-20T05:37:07.640Z,15.28
2017-10-20T05:38:07.618Z,15.27
2017-10-20T05:39:07.594Z,15.3
2017-10-20T05:40:07.566Z,15.38
2017-10-20T05:41:07.554Z,15.31
2017-10-20T05:42:07.279Z,15.35
2017-10-20T05:43:07.429Z,15.27
2017-10-20T05:44:07.491Z,15.27
2017-10-20T05:45:07.461Z,15.28
2017-10-20T05:46:07.455Z,15.23
2017-10-20T05:47:07.415Z,15.27
2017-10-20T05:48:07.391Z,15.28
2017-10-20T05:49:07.377Z,15.3
2017-10-20T05:50:07.346Z,15.27
2017-10-20T05:51:07.353Z,15.18
2017-10-20T05:52:07.303Z,15.13
2017-10-20T05:53:06.963Z,15.16
2017-10-20T05:54:07.260Z,15.09
2017-10-20T05:55:06.917Z,15.11
2017-10-20T05:56:07.222Z,15.05
2017-10-20T05:57:06.880Z,14.97
2017-10-20T05:58:07.193Z,15.03
2017-10-20T05:59:07.156Z,15
2017-10-20T06:00:07.134Z,15.01
2017-10-20T06:01:07.110Z,14.87
2017-10-20T06:02:07.084Z,14.83
2017-10-20T06:03:07.086Z,14.79
2017-10-20T06:04:07.039Z,14.72
2017-10-20T06:05:07.026Z,14.78
2017-10-20T06:06:06.996Z,14.72
2017-10-20T06:07:06.976Z,14.6
2017-10-20T06:08:06.958Z,14.64
2017-10-20T06:09:06.930Z,14.66
2017-10-20T06:10:06.909Z,14.57
2017-10-20T06:11:06.889Z,14.49
2017-10-20T06:12:06.863Z,14.53
2017-10-20T06:13:06.851Z,14.53
2017-10-20T06:14:06.820Z,14.45
2017-10-20T06:15:06.801Z,14.41
2017-10-20T06:16:06.771Z,14.42
2017-10-20T06:17:06.756Z,14.36
2017-10-20T06:18:06.733Z,14.31
2017-10-20T06:19:06.711Z,14.31
2017-10-20T06:20:06.694Z,14.34
2017-10-20T06:21:06.666Z,14.29
2017-10-20T06:22:06.644Z,14.31
2017-10-20T06:23:06.315Z,14.3
2017-10-20T06:24:06.598Z,14.24
2017-10-20T06:25:06.575Z,14.27
2017-10-20T06:26:06.545Z,14.27
2017-10-20T06:27:06.211Z,14.23
2017-10-20T06:28:06.521Z,14.17
2017-10-20T06:29:06.491Z,14.19
2017-10-20T06:30:06.475Z,14.13
2017-10-20T06:31:06.442Z,14.11
2017-10-20T06:32:06.421Z,14.06
2017-10-20T06:33:06.077Z,14.24
2017-10-20T06:34:06.377Z,14.09
2017-10-20T06:35:06.349Z,14.08
2017-10-20T06:36:06.333Z,14.08
2017-10-20T06:37:06.472Z,14.12
2017-10-20T06:38:06.287Z,14.17
2017-10-20T06:39:06.257Z,14.02
2017-10-20T06:40:06.237Z,14.04
2017-10-20T06:41:06.237Z,14.01
2017-10-20T06:42:06.196Z,14.05
2017-10-20T06:43:06.173Z,13.98
2017-10-20T06:44:06.148Z,14.05
2017-10-20T06:45:06.126Z,14.05
2017-10-20T06:46:05.785Z,14.05
2017-10-20T06:47:06.094Z,14.01
2017-10-20T06:48:06.059Z,14.05
2017-10-20T06:49:06.050Z,14.06
2017-10-20T06:50:06.015Z,14.05
2017-10-20T06:51:05.995Z,14.04
2017-10-20T06:52:05.975Z,14.06
2017-10-20T06:53:05.962Z,13.99
2017-10-20T06:54:05.931Z,14.01
2017-10-20T06:55:05.925Z,14.04
2017-10-20T06:56:05.878Z,14.02
2017-10-20T06:57:05.889Z,14.02
2017-10-20T06:58:05.838Z,14.06
2017-10-20T06:59:05.809Z,14.06
2017-10-20T07:00:05.796Z,14.05
2017-10-20T07:01:05.773Z,13.96
2017-10-20T07:02:05.742Z,14.06
2017-10-20T07:03:05.728Z,14.04
2017-10-20T07:04:05.695Z,14.04
2017-10-20T07:05:05.676Z,13.96
2017-10-20T07:06:05.657Z,13.96
2017-10-20T07:07:05.633Z,14.05
2017-10-20T07:08:05.611Z,14.05
2017-10-20T07:09:05.590Z,13.99
2017-10-20T07:10:05.575Z,14.02
2017-10-20T07:11:05.543Z,14.01
2017-10-20T07:12:05.529Z,13.99
2017-10-20T07:13:05.502Z,14.04
2017-10-20T07:14:05.478Z,13.98
2017-10-20T07:15:05.454Z,14.02
2017-10-20T07:16:05.432Z,14.01
2017-10-20T07:17:05.090Z,14.05
2017-10-20T07:18:05.400Z,14.08
2017-10-20T07:19:05.370Z,14.09
2017-10-20T07:20:05.024Z,14.17
2017-10-20T07:21:05.330Z,14.05
2017-10-20T07:22:05.305Z,14.06
2017-10-20T07:23:05.281Z,14.09
2017-10-20T07:24:05.265Z,14.19
2017-10-20T07:25:05.231Z,14.09
2017-10-20T07:26:05.211Z,14.2
2017-10-20T07:27:05.182Z,14.21
2017-10-20T07:28:05.169Z,14.16
2017-10-20T07:29:05.142Z,14.13
2017-10-20T07:30:05.125Z,14.26
2017-10-20T07:31:05.095Z,14.19
2017-10-20T07:32:05.072Z,14.24
2017-10-20T07:33:05.061Z,14.29
2017-10-20T07:34:05.031Z,14.26
2017-10-20T07:35:05.018Z,14.3
2017-10-20T07:36:04.983Z,14.27
2017-10-20T07:37:04.968Z,14.31
2017-10-20T07:38:04.944Z,14.35
2017-10-20T07:39:04.912Z,14.38
2017-10-20T07:40:04.892Z,14.36
2017-10-20T07:41:04.884Z,14.42
2017-10-20T07:42:04.851Z,14.42
2017-10-20T07:43:04.831Z,14.44
2017-10-20T07:44:04.803Z,14.42
2017-10-20T07:45:04.791Z,14.49
2017-10-20T07:46:04.753Z,14.49
2017-10-20T07:47:04.755Z,14.45
2017-10-20T07:48:04.712Z,14.46
2017-10-20T07:49:04.690Z,14.53
2017-10-20T07:50:04.677Z,14.52
2017-10-20T07:51:04.644Z,14.59
2017-10-20T07:52:04.306Z,14.56
2017-10-20T07:53:04.602Z,14.61
2017-10-20T07:54:04.607Z,14.59
2017-10-20T07:55:04.568Z,14.61
2017-10-20T07:56:04.546Z,14.69
2017-10-20T07:57:04.193Z,14.67
2017-10-20T07:58:04.495Z,14.63
2017-10-20T07:59:04.477Z,14.67
2017-10-20T08:00:04.448Z,14.57
2017-10-20T08:01:04.114Z,14.59
2017-10-20T08:02:04.413Z,14.69
2017-10-20T08:03:04.377Z,14.74
2017-10-20T08:04:04.368Z,14.79
2017-10-20T08:05:04.341Z,14.75
2017-10-20T08:06:04.313Z,14.82
2017-10-20T08:07:04.289Z,14.72
2017-10-20T08:08:04.278Z,14.69
2017-10-20T08:09:04.247Z,14.83
2017-10-20T08:10:04.232Z,14.85
2017-10-20T08:11:04.207Z,14.85
2017-10-20T08:12:04.228Z,14.83
2017-10-20T08:13:04.168Z,14.91
2017-10-20T08:14:04.139Z,14.94
2017-10-20T08:15:04.121Z,14.91
2017-10-20T08:16:04.108Z,14.85
2017-10-20T08:17:04.068Z,14.9
2017-10-20T08:18:04.066Z,14.85
2017-10-20T08:19:04.065Z,15
2017-10-20T08:20:04.007Z,14.94
2017-10-20T08:21:03.993Z,14.98
2017-10-20T08:22:03.974Z,14.98
2017-10-20T08:23:03.621Z,14.91
2017-10-20T08:24:03.922Z,14.94
2017-10-20T08:25:03.579Z,15.15
2017-10-20T08:26:03.878Z,15.19
2017-10-20T08:27:03.862Z,15.18
2017-10-20T08:28:03.836Z,15.18
2017-10-20T08:29:03.826Z,15.28
2017-10-20T08:30:03.788Z,15.31
2017-10-20T08:31:03.774Z,15.27
2017-10-20T08:32:03.775Z,15.3
2017-10-20T08:33:03.405Z,15.3
2017-10-20T08:34:03.706Z,15.18
2017-10-20T08:35:03.681Z,15.28
2017-10-20T08:36:03.658Z,15.19
2017-10-20T08:37:03.634Z,15.28
2017-10-20T08:38:03.617Z,15.19
2017-10-20T08:39:03.588Z,15.19
2017-10-20T08:40:03.577Z,15.15
2017-10-20T08:41:03.557Z,15.16
2017-10-20T08:42:03.206Z,15.18
2017-10-20T08:43:03.508Z,15.18
2017-10-20T08:44:03.491Z,15.27
2017-10-20T08:45:03.490Z,15.19
2017-10-20T08:46:03.450Z,15.16
2017-10-20T08:47:03.436Z,15.22
2017-10-20T08:48:03.401Z,15.22
2017-10-20T08:49:03.371Z,15.15
2017-10-20T08:50:03.358Z,15.16
2017-10-20T08:51:03.350Z,15.19
2017-10-20T08:52:02.993Z,15.16
2017-10-20T08:53:02.967Z,15.19
2017-10-20T08:54:03.615Z,15.2
2017-10-20T08:55:03.241Z,15.22
2017-10-20T08:56:03.226Z,15.19
2017-10-20T08:57:03.214Z,15.11
2017-10-20T08:58:03.547Z,15.09
2017-10-20T08:59:03.183Z,15.09
2017-10-20T09:00:03.259Z,15.12
2017-10-20T09:01:03.171Z,14.97
2017-10-20T09:02:03.101Z,14.95
2017-10-20T09:03:03.099Z,15.07
2017-10-20T09:04:02.751Z,15.01
2017-10-20T09:05:03.029Z,15.01
2017-10-20T09:06:03.029Z,15.01
2017-10-20T09:07:02.670Z,14.98
2017-10-20T09:08:02.998Z,14.93
2017-10-20T09:09:02.633Z,15.03
2017-10-20T09:10:02.918Z,14.97
2017-10-20T09:11:02.910Z,14.9
2017-10-20T09:12:02.893Z,15
2017-10-20T09:13:02.527Z,14.91
2017-10-20T09:14:02.834Z,14.91
2017-10-20T09:15:02.817Z,14.91
2017-10-20T09:16:02.791Z,14.8
2017-10-20T09:17:02.450Z,14.83
2017-10-20T09:18:02.740Z,14.85
2017-10-20T09:19:02.727Z,14.75
2017-10-20T09:20:02.711Z,14.86
2017-10-20T09:21:02.360Z,14.82
2017-10-20T09:22:02.655Z,14.82
2017-10-20T09:23:02.638Z,14.79
2017-10-20T09:24:02.613Z,14.79
2017-10-20T09:25:02.262Z,14.72
2017-10-20T09:26:02.563Z,14.74
2017-10-20T09:27:02.545Z,14.67
2017-10-20T09:28:02.524Z,14.61
2017-10-20T09:29:02.502Z,14.61
2017-10-20T09:30:02.510Z,14.61
2017-10-20T09:31:02.138Z,14.59
2017-10-20T09:32:02.438Z,14.54
2017-10-20T09:33:02.424Z,14.54
2017-10-20T09:34:02.409Z,14.6
2017-10-20T09:35:02.380Z,14.54
2017-10-20T09:36:02.346Z,14.61
2017-10-20T09:37:02.320Z,14.6
2017-10-20T09:38:02.299Z,14.52
2017-10-20T09:39:02.274Z,14.54
2017-10-20T09:40:02.255Z,14.56
2017-10-20T09:41:01.909Z,14.61
2017-10-20T09:42:02.215Z,14.66
2017-10-20T09:43:02.192Z,14.64
2017-10-20T09:44:01.844Z,14.59
2017-10-20T09:45:02.178Z,14.66
2017-10-20T09:46:02.118Z,14.57
2017-10-20T09:47:02.102Z,14.67
2017-10-20T09:48:02.080Z,14.67
2017-10-20T09:49:02.058Z,14.64
2017-10-20T09:50:02.029Z,14.66
2017-10-20T09:51:02.010Z,14.64
2017-10-20T09:52:01.993Z,14.78
2017-10-20T09:53:01.977Z,14.78
2017-10-20T09:54:01.948Z,14.86
2017-10-20T09:55:01.932Z,14.8
2017-10-20T09:56:01.901Z,14.75
2017-10-20T09:57:01.880Z,14.78
2017-10-20T09:58:01.865Z,14.72
2017-10-20T09:59:01.853Z,14.79
2017-10-20T10:00:01.813Z,14.78
2017-10-20T10:01:01.989Z,14.8
2017-10-20T10:02:01.790Z,14.85
2017-10-20T10:03:01.749Z,14.8
2017-10-20T10:04:01.409Z,14.82
2017-10-20T10:05:01.386Z,14.79
2017-10-20T10:06:01.699Z,14.8
2017-10-20T10:07:01.654Z,14.83
2017-10-20T10:08:01.638Z,14.85
2017-10-20T10:09:01.615Z,14.86
2017-10-20T10:10:01.590Z,14.83
2017-10-20T10:11:01.572Z,14.83
2017-10-20T10:12:01.551Z,14.83
2017-10-20T10:13:01.532Z,14.8
2017-10-20T10:14:01.528Z,14.86
2017-10-20T10:15:01.473Z,14.85
2017-10-20T10:16:01.466Z,14.91
2017-10-20T10:17:01.439Z,15
2017-10-20T10:18:01.098Z,14.87
2017-10-20T10:19:01.394Z,14.97
2017-10-20T10:20:01.371Z,15
2017-10-20T10:21:01.032Z,15.03
2017-10-20T10:22:01.334Z,15.07
2017-10-20T10:23:01.306Z,15.13
2017-10-20T10:24:01.290Z,15.19
2017-10-20T10:25:00.943Z,15.16
2017-10-20T10:26:01.258Z,15.19
2017-10-20T10:27:01.217Z,15.15
2017-10-20T10:28:01.202Z,15.16
2017-10-20T10:29:01.178Z,15.11
2017-10-20T10:30:01.161Z,15.13
2017-10-20T10:31:01.129Z,15.09
2017-10-20T10:32:00.788Z,15.11
2017-10-20T10:33:01.086Z,15.11
2017-10-20T10:34:01.103Z,15.11
2017-10-20T10:35:01.043Z,15.15
2017-10-20T10:36:01.026Z,15.11
2017-10-20T10:37:01.013Z,14.94
2017-10-20T10:38:00.973Z,15.04
2017-10-20T10:39:00.960Z,15.11
2017-10-20T10:40:01.287Z,15.03
2017-10-20T10:41:00.922Z,15.16
2017-10-20T10:42:00.895Z,14.98
2017-10-20T10:43:00.877Z,15.05
2017-10-20T10:44:00.856Z,15.07
2017-10-20T10:45:00.837Z,14.94
2017-10-20T10:46:00.805Z,14.97
2017-10-20T10:47:00.797Z,14.95
2017-10-20T10:48:00.439Z,14.97
2017-10-20T10:49:00.736Z,14.97
2017-10-20T10:50:00.717Z,15.15
2017-10-20T10:51:00.708Z,15.09
2017-10-20T10:52:00.685Z,15.22
2017-10-20T10:53:00.663Z,15.3
2017-10-20T10:54:00.635Z,15.33
2017-10-20T10:55:00.625Z,15.33
2017-10-20T10:56:00.593Z,15.4
2017-10-20T10:57:00.918Z,15.41
2017-10-20T10:58:00.551Z,15.51
2017-10-20T10:59:00.525Z,15.52
2017-10-20T11:00:00.508Z,15.53
2017-10-20T11:01:00.482Z,15.6
2017-10-20T11:02:00.470Z,15.71
2017-10-20T11:03:00.455Z,15.71
2017-10-20T11:04:00.481Z,15.68
2017-10-20T11:05:00.501Z,15.64
2017-10-20T11:06:00.931Z,15.59
2017-10-20T11:07:00.353Z,15.68
2017-10-20T11:08:00.381Z,15.64
2017-10-20T11:09:00.357Z,15.7
2017-10-20T11:10:00.288Z,15.68
2017-10-20T11:11:00.278Z,15.64
2017-10-20T11:12:00.306Z,15.59
2017-10-20T11:13:00.234Z,15.62
2017-10-20T11:14:00.212Z,15.62
2017-10-20T11:14:59.550Z,15.64
2017-10-20T11:16:00.154Z,15.62
2017-10-20T11:17:00.149Z,15.49
2017-10-20T11:17:59.826Z,15.48
2017-10-20T11:18:59.778Z,15.48
2017-10-20T11:20:00.082Z,15.38
2017-10-20T11:21:00.067Z,15.33
2017-10-20T11:22:00.044Z,15.33
2017-10-20T11:22:59.699Z,15.33
2017-10-20T11:23:59.672Z,15.35
2017-10-20T11:24:59.976Z,15.19
2017-10-20T11:25:59.968Z,15.2
2017-10-20T11:26:59.938Z,15.11
2017-10-20T11:27:59.911Z,15.09
2017-10-20T11:28:59.895Z,15.18
2017-10-20T11:29:59.880Z,15.11
2017-10-20T11:30:59.511Z,15.05
2017-10-20T11:31:59.836Z,15.13
2017-10-20T11:32:59.786Z,15.13
2017-10-20T11:33:59.717Z,15.13
2017-10-20T11:34:59.767Z,15.2
2017-10-20T11:35:59.745Z,15.22
2017-10-20T11:36:59.703Z,15.18
2017-10-20T11:37:59.696Z,15.2
2017-10-20T11:38:59.671Z,15.28
2017-10-20T11:39:59.645Z,15.19
2017-10-20T11:40:59.630Z,15.27
2017-10-20T11:41:59.662Z,15.18
2017-10-20T11:42:59.596Z,15.25
2017-10-20T11:43:59.257Z,15.37
2017-10-20T11:44:59.218Z,15.33
2017-10-20T11:45:59.513Z,15.3
2017-10-20T11:46:59.188Z,15.43
2017-10-20T11:47:59.474Z,15.43
2017-10-20T11:48:59.449Z,15.46
2017-10-20T11:49:59.436Z,15.48
2017-10-20T11:50:59.421Z,15.56
2017-10-20T11:51:59.382Z,15.62
2017-10-20T11:52:59.680Z,15.66
2017-10-20T11:53:59.026Z,15.74
2017-10-20T11:54:59.354Z,15.7
2017-10-20T11:55:59.367Z,15.84
2017-10-20T11:56:59.277Z,15.78
2017-10-20T11:57:59.257Z,15.86
2017-10-20T11:58:59.224Z,15.95
2017-10-20T11:59:59.201Z,15.92
2017-10-20T12:00:59.219Z,15.96
2017-10-20T12:01:59.162Z,16.01
2017-10-20T12:02:59.144Z,16.03
2017-10-20T12:03:59.126Z,15.95
2017-10-20T12:04:59.099Z,15.93
2017-10-20T12:05:59.079Z,15.96
2017-10-20T12:06:59.050Z,16.03
2017-10-20T12:07:59.034Z,16.07
2017-10-20T12:08:58.435Z,16.11
2017-10-20T12:09:58.996Z,16.17
2017-10-20T12:10:58.973Z,16.18
2017-10-20T12:11:58.945Z,16.27
2017-10-20T12:12:58.964Z,16.18
2017-10-20T12:13:58.906Z,16.25
2017-10-20T12:14:58.569Z,16.26
2017-10-20T12:15:58.870Z,16.18
2017-10-20T12:16:58.878Z,16.16
2017-10-20T12:17:58.857Z,16.07
2017-10-20T12:18:58.797Z,16.14
2017-10-20T12:19:58.778Z,16.1
2017-10-20T12:20:58.744Z,16.04
2017-10-20T12:21:58.738Z,16.01
2017-10-20T12:22:58.710Z,16.13
2017-10-20T12:23:58.694Z,16.11
2017-10-20T12:24:58.669Z,16.07
2017-10-20T12:25:58.332Z,16.1
2017-10-20T12:26:58.624Z,16.14
2017-10-20T12:27:58.620Z,16.08
2017-10-20T12:28:58.584Z,16.11
2017-10-20T12:29:58.243Z,16.11
2017-10-20T12:30:58.541Z,16.08
2017-10-20T12:31:58.523Z,16.11
2017-10-20T12:32:58.505Z,16.13
2017-10-20T12:33:58.478Z,16.13
2017-10-20T12:34:58.457Z,16.08
2017-10-20T12:35:58.437Z,16.1
2017-10-20T12:36:58.413Z,16.18
2017-10-20T12:37:58.390Z,16.18
2017-10-20T12:38:58.379Z,16.25
2017-10-20T12:39:58.349Z,16.22
2017-10-20T12:40:58.322Z,16.25
2017-10-20T12:41:58.325Z,16.26
2017-10-20T12:42:58.281Z,16.23
2017-10-20T12:43:58.265Z,16.25
2017-10-20T12:44:58.587Z,16.23
2017-10-20T12:45:58.219Z,16.17
2017-10-20T12:46:58.197Z,16.18
2017-10-20T12:47:58.175Z,16.14
2017-10-20T12:48:58.164Z,16.22
2017-10-20T12:49:58.140Z,16.23
2017-10-20T12:50:58.116Z,16.25
2017-10-20T12:51:58.094Z,16.26
2017-10-20T12:52:58.077Z,16.26
2017-10-20T12:53:58.039Z,16.3
2017-10-20T12:54:58.045Z,16.33